sensor_id;sensor_type;location;lat;lon;timestamp;pressure;altitude;pressure_sealevel;temperature;humidity
13050;BME280;6591;51.446;5.404;2023-02-28T00:01:33;102772.41;;;6.23;42.04
13050;BME280;6591;51.446;5.404;2023-02-28T00:04:00;102765.38;;;6.24;41.69
13050;BME280;6591;51.446;5.404;2023-02-28T00:06:27;102769.78;;;6.26;41.86
13050;BME280;6591;51.446;5.404;2023-02-28T00:08:55;102769.81;;;6.28;41.67
13050;BME280;6591;51.446;5.404;2023-02-28T00:11:22;102770.66;;;6.30;41.98
13050;BME280;6591;51.446;5.404;2023-02-28T00:13:49;102774.19;;;6.29;41.65
13050;BME280;6591;51.446;5.404;2023-02-28T00:16:20;102775.09;;;6.28;41.95
13050;BME280;6591;51.446;5.404;2023-02-28T00:18:49;102768.91;;;6.29;42.53
13050;BME280;6591;51.446;5.404;2023-02-28T00:21:19;102766.28;;;6.26;41.58
13050;BME280;6591;51.446;5.404;2023-02-28T00:23:47;102776.81;;;6.26;42.17
13050;BME280;6591;51.446;5.404;2023-02-28T00:26:16;102779.47;;;6.26;42.11
13050;BME280;6591;51.446;5.404;2023-02-28T00:28:45;102772.41;;;6.25;41.85
13050;BME280;6591;51.446;5.404;2023-02-28T00:31:12;102768.03;;;6.22;42.24
13050;BME280;6591;51.446;5.404;2023-02-28T00:33:39;102769.78;;;6.22;42.64
13050;BME280;6591;51.446;5.404;2023-02-28T00:36:10;102775.03;;;6.20;41.89
13050;BME280;6591;51.446;5.404;2023-02-28T00:38:39;102765.38;;;6.21;42.64
13050;BME280;6591;51.446;5.404;2023-02-28T00:41:07;102767.13;;;6.22;42.75
13050;BME280;6591;51.446;5.404;2023-02-28T00:43:38;102778.56;;;6.22;43.00
13050;BME280;6591;51.446;5.404;2023-02-28T00:46:06;102771.50;;;6.23;41.81
13050;BME280;6591;51.446;5.404;2023-02-28T00:48:33;102768.88;;;6.23;42.31
13050;BME280;6591;51.446;5.404;2023-02-28T00:51:01;102777.66;;;6.23;42.69
13050;BME280;6591;51.446;5.404;2023-02-28T00:53:29;102772.41;;;6.22;42.02
13050;BME280;6591;51.446;5.404;2023-02-28T00:55:57;102777.69;;;6.20;42.51
13050;BME280;6591;51.446;5.404;2023-02-28T00:58:25;102770.63;;;6.18;42.51
13050;BME280;6591;51.446;5.404;2023-02-28T01:00:53;102772.38;;;6.16;42.10
13050;BME280;6591;51.446;5.404;2023-02-28T01:03:22;102768.88;;;6.12;42.46
13050;BME280;6591;51.446;5.404;2023-02-28T01:05:49;102770.63;;;6.12;42.51
13050;BME280;6591;51.446;5.404;2023-02-28T01:08:17;102772.38;;;6.11;42.19
13050;BME280;6591;51.446;5.404;2023-02-28T01:10:44;102787.28;;;6.09;42.37
13050;BME280;6591;51.446;5.404;2023-02-28T01:13:12;102782.91;;;6.07;42.74
13050;BME280;6591;51.446;5.404;2023-02-28T01:15:52;102788.13;;;6.04;42.30
13050;BME280;6591;51.446;5.404;2023-02-28T01:18:20;102791.66;;;6.03;42.41
13050;BME280;6591;51.446;5.404;2023-02-28T01:20:48;102789.91;;;6.02;42.11
13050;BME280;6591;51.446;5.404;2023-02-28T01:23:16;102789.00;;;5.98;42.52
13050;BME280;6591;51.446;5.404;2023-02-28T01:25:43;102784.59;;;5.95;42.21
13050;BME280;6591;51.446;5.404;2023-02-28T01:28:10;102788.97;;;5.93;42.31
13050;BME280;6591;51.446;5.404;2023-02-28T01:30:37;102787.19;;;5.92;42.88
13050;BME280;6591;51.446;5.404;2023-02-28T01:33:05;102798.63;;;5.91;42.29
13050;BME280;6591;51.446;5.404;2023-02-28T01:35:35;102796.88;;;5.90;42.55
13050;BME280;6591;51.446;5.404;2023-02-28T01:38:03;102790.72;;;5.90;42.88
13050;BME280;6591;51.446;5.404;2023-02-28T01:40:46;102784.56;;;5.89;42.33
13050;BME280;6591;51.446;5.404;2023-02-28T01:43:23;102795.03;;;5.86;42.74
13050;BME280;6591;51.446;5.404;2023-02-28T01:45:53;102788.94;;;5.87;42.16
13050;BME280;6591;51.446;5.404;2023-02-28T01:48:36;102781.84;;;5.83;42.37
13050;BME280;6591;51.446;5.404;2023-02-28T01:51:13;102787.13;;;5.83;42.78
13050;BME280;6591;51.446;5.404;2023-02-28T01:53:48;102788.00;;;5.82;42.32
13050;BME280;6591;51.446;5.404;2023-02-28T01:56:22;102777.44;;;5.82;43.26
13050;BME280;6591;51.446;5.404;2023-02-28T01:58:52;102767.78;;;5.83;42.58
13050;BME280;6591;51.446;5.404;2023-02-28T02:01:25;102766.91;;;5.82;42.80
13050;BME280;6591;51.446;5.404;2023-02-28T02:04:01;102763.38;;;5.82;42.81
13050;BME280;6591;51.446;5.404;2023-02-28T02:06:42;102762.50;;;5.81;43.11
13050;BME280;6591;51.446;5.404;2023-02-28T02:09:11;102751.09;;;5.82;43.17
13050;BME280;6591;51.446;5.404;2023-02-28T02:11:42;102749.34;;;5.83;42.70
13050;BME280;6591;51.446;5.404;2023-02-28T02:14:47;102753.75;;;5.81;42.80
13050;BME280;6591;51.446;5.404;2023-02-28T02:17:34;102751.06;;;5.76;43.08
13050;BME280;6591;51.446;5.404;2023-02-28T02:23:33;102754.56;;;5.72;42.85
13050;BME280;6591;51.446;5.404;2023-02-28T02:26:47;102741.34;;;5.65;42.67
13050;BME280;6591;51.446;5.404;2023-02-28T02:29:52;102738.72;;;5.63;42.72
13050;BME280;6591;51.446;5.404;2023-02-28T02:40:57;102742.13;;;5.50;42.70
13050;BME280;6591;51.446;5.404;2023-02-28T02:43:33;102744.78;;;5.48;43.11
13050;BME280;6591;51.446;5.404;2023-02-28T02:46:12;102747.38;;;5.50;43.28
13050;BME280;6591;51.446;5.404;2023-02-28T02:48:46;102747.38;;;5.50;42.76
13050;BME280;6591;51.446;5.404;2023-02-28T02:51:18;102747.44;;;5.54;43.17
13050;BME280;6591;51.446;5.404;2023-02-28T02:54:02;102748.31;;;5.57;43.63
13050;BME280;6591;51.446;5.404;2023-02-28T02:56:33;102748.34;;;5.63;43.76
13050;BME280;6591;51.446;5.404;2023-02-28T02:59:07;102750.16;;;5.65;44.08
13050;BME280;6591;51.446;5.404;2023-02-28T03:01:38;102737.88;;;5.72;43.57
13050;BME280;6591;51.446;5.404;2023-02-28T03:04:16;102751.94;;;5.74;43.70
13050;BME280;6591;51.446;5.404;2023-02-28T03:06:46;102752.88;;;5.80;43.45
13050;BME280;6591;51.446;5.404;2023-02-28T03:09:14;102754.63;;;5.84;43.80
13050;BME280;6591;51.446;5.404;2023-02-28T03:11:42;102754.72;;;5.90;43.52
13050;BME280;6591;51.446;5.404;2023-02-28T03:17:00;102744.19;;;5.95;43.67
13050;BME280;6591;51.446;5.404;2023-02-28T03:20:06;102736.25;;;5.92;43.28
13050;BME280;6591;51.446;5.404;2023-02-28T03:25:54;102745.91;;;5.91;43.05
13050;BME280;6591;51.446;5.404;2023-02-28T03:28:41;102740.63;;;5.88;43.53
13050;BME280;6591;51.446;5.404;2023-02-28T03:31:28;102744.16;;;5.90;43.65
13050;BME280;6591;51.446;5.404;2023-02-28T03:34:08;102745.03;;;5.92;43.63
13050;BME280;6591;51.446;5.404;2023-02-28T03:37:10;102744.19;;;5.95;43.23
13050;BME280;6591;51.446;5.404;2023-02-28T03:39:58;102751.22;;;6.01;43.59
13050;BME280;6591;51.446;5.404;2023-02-28T03:42:31;102746.84;;;6.09;43.58
13050;BME280;6591;51.446;5.404;2023-02-28T03:45:04;102745.13;;;6.14;44.06
13050;BME280;6591;51.446;5.404;2023-02-28T03:48:37;102743.38;;;6.19;44.19
13050;BME280;6591;51.446;5.404;2023-02-28T03:50:48;102743.41;;;6.26;43.65
13050;BME280;6591;51.446;5.404;2023-02-28T03:56:19;102746.97;;;6.42;44.02
13050;BME280;6591;51.446;5.404;2023-02-28T03:58:57;102754.91;;;6.53;43.88
13050;BME280;6591;51.446;5.404;2023-02-28T04:04:03;102746.16;;;6.67;43.94
13050;BME280;6591;51.446;5.404;2023-02-28T04:06:33;102747.94;;;6.74;43.83
13050;BME280;6591;51.446;5.404;2023-02-28T04:09:03;102745.28;;;6.84;43.81
13050;BME280;6591;51.446;5.404;2023-02-28T04:11:39;102748.81;;;6.90;43.53
13050;BME280;6591;51.446;5.404;2023-02-28T04:14:09;102746.19;;;6.95;43.52
13050;BME280;6591;51.446;5.404;2023-02-28T04:16:40;102749.69;;;7.03;43.59
13050;BME280;6591;51.446;5.404;2023-02-28T04:19:11;102740.88;;;7.08;43.79
13050;BME280;6591;51.446;5.404;2023-02-28T04:21:45;102750.56;;;7.14;43.95
13050;BME280;6591;51.446;5.404;2023-02-28T04:24:19;102746.19;;;7.22;43.12
13050;BME280;6591;51.446;5.404;2023-02-28T04:26:50;102751.44;;;7.28;43.46
13050;BME280;6591;51.446;5.404;2023-02-28T04:29:23;102750.56;;;7.32;43.63
13050;BME280;6591;51.446;5.404;2023-02-28T04:31:50;102753.22;;;7.37;43.31
13050;BME280;6591;51.446;5.404;2023-02-28T04:34:21;102760.22;;;7.39;42.66
13050;BME280;6591;51.446;5.404;2023-02-28T04:36:48;102754.97;;;7.42;43.73
13050;BME280;6591;51.446;5.404;2023-02-28T04:39:37;102758.47;;;7.46;43.51
13050;BME280;6591;51.446;5.404;2023-02-28T04:42:04;102755.81;;;7.49;43.22
13050;BME280;6591;51.446;5.404;2023-02-28T04:44:32;102758.47;;;7.50;43.19
13050;BME280;6591;51.446;5.404;2023-02-28T04:46:59;102760.22;;;7.53;42.99
13050;BME280;6591;51.446;5.404;2023-02-28T04:49:26;102757.56;;;7.54;43.54
13050;BME280;6591;51.446;5.404;2023-02-28T04:51:54;102761.97;;;7.58;43.38
13050;BME280;6591;51.446;5.404;2023-02-28T04:54:21;102760.19;;;7.60;43.17
13050;BME280;6591;51.446;5.404;2023-02-28T04:56:48;102757.56;;;7.62;42.66
13050;BME280;6591;51.446;5.404;2023-02-28T04:59:17;102761.97;;;7.61;43.00
13050;BME280;6591;51.446;5.404;2023-02-28T05:01:49;102757.53;;;7.59;42.96
13050;BME280;6591;51.446;5.404;2023-02-28T05:04:16;102755.81;;;7.62;42.94
13050;BME280;6591;51.446;5.404;2023-02-28T05:06:44;102756.69;;;7.63;42.73
13050;BME280;6591;51.446;5.404;2023-02-28T05:09:11;102746.13;;;7.63;42.98
13050;BME280;6591;51.446;5.404;2023-02-28T05:11:39;102752.25;;;7.66;42.75
13050;BME280;6591;51.446;5.404;2023-02-28T05:14:13;102753.13;;;7.65;43.48
13050;BME280;6591;51.446;5.404;2023-02-28T05:16:40;102754.91;;;7.68;43.60
13050;BME280;6591;51.446;5.404;2023-02-28T05:19:08;102764.59;;;7.69;42.96
13050;BME280;6591;51.446;5.404;2023-02-28T05:21:53;102772.53;;;7.68;43.50
13050;BME280;6591;51.446;5.404;2023-02-28T05:24:21;102764.59;;;7.72;43.00
13050;BME280;6591;51.446;5.404;2023-02-28T05:26:53;102764.59;;;7.74;42.65
13050;BME280;6591;51.446;5.404;2023-02-28T05:29:21;102766.31;;;7.76;43.19
13050;BME280;6591;51.446;5.404;2023-02-28T05:31:48;102767.22;;;7.77;43.15
13050;BME280;6591;51.446;5.404;2023-02-28T05:34:16;102767.22;;;7.77;42.69
13050;BME280;6591;51.446;5.404;2023-02-28T05:36:43;102769.84;;;7.77;43.24
13050;BME280;6591;51.446;5.404;2023-02-28T05:39:11;102769.84;;;7.77;42.83
13050;BME280;6591;51.446;5.404;2023-02-28T05:41:43;102768.97;;;7.78;43.04
13050;BME280;6591;51.446;5.404;2023-02-28T05:44:11;102774.25;;;7.78;42.69
13050;BME280;6591;51.446;5.404;2023-02-28T05:46:38;102767.22;;;7.77;43.04
13050;BME280;6591;51.446;5.404;2023-02-28T05:49:06;102771.63;;;7.79;42.38
13050;BME280;6591;51.446;5.404;2023-02-28T05:51:33;102769.88;;;7.78;42.60
13050;BME280;6591;51.446;5.404;2023-02-28T05:54:03;102772.50;;;7.80;43.03
13050;BME280;6591;51.446;5.404;2023-02-28T05:56:30;102772.50;;;7.80;42.52
13050;BME280;6591;51.446;5.404;2023-02-28T05:58:57;102775.16;;;7.80;42.74
13050;BME280;6591;51.446;5.404;2023-02-28T06:01:37;102769.84;;;7.77;42.66
13050;BME280;6591;51.446;5.404;2023-02-28T06:04:08;102775.16;;;7.78;42.56
13050;BME280;6591;51.446;5.404;2023-02-28T06:06:46;102770.75;;;7.79;42.77
13050;BME280;6591;51.446;5.404;2023-02-28T06:09:14;102770.75;;;7.77;43.07
13050;BME280;6591;51.446;5.404;2023-02-28T06:11:43;102777.78;;;7.77;43.22
13050;BME280;6591;51.446;5.404;2023-02-28T06:14:17;102783.06;;;7.77;42.36
13050;BME280;6591;51.446;5.404;2023-02-28T06:16:45;102781.31;;;7.79;42.97
13050;BME280;6591;51.446;5.404;2023-02-28T06:19:13;102783.97;;;7.77;42.76
13050;BME280;6591;51.446;5.404;2023-02-28T06:21:42;102785.72;;;7.77;42.66
13050;BME280;6591;51.446;5.404;2023-02-28T06:24:09;102791.03;;;7.80;42.79
13050;BME280;6591;51.446;5.404;2023-02-28T06:26:37;102794.50;;;7.80;43.37
13050;BME280;6591;51.446;5.404;2023-02-28T06:29:04;102795.41;;;7.81;42.75
13050;BME280;6591;51.446;5.404;2023-02-28T06:31:32;102791.88;;;7.82;42.82
13050;BME280;6591;51.446;5.404;2023-02-28T06:34:00;102792.75;;;7.82;43.14
13050;BME280;6591;51.446;5.404;2023-02-28T06:36:27;102786.59;;;7.85;43.18
13050;BME280;6591;51.446;5.404;2023-02-28T06:38:54;102795.38;;;7.85;43.01
13050;BME280;6591;51.446;5.404;2023-02-28T06:41:26;102799.78;;;7.86;43.27
13050;BME280;6591;51.446;5.404;2023-02-28T06:43:55;102793.63;;;7.89;42.66
13050;BME280;6591;51.446;5.404;2023-02-28T06:46:23;102791.84;;;7.91;42.59
13050;BME280;6591;51.446;5.404;2023-02-28T06:48:50;102790.97;;;7.93;42.65
13050;BME280;6591;51.446;5.404;2023-02-28T06:51:20;102788.31;;;7.93;42.88
13050;BME280;6591;51.446;5.404;2023-02-28T06:53:49;102797.13;;;7.97;42.92
13050;BME280;6591;51.446;5.404;2023-02-28T06:56:19;102798.03;;;7.94;42.66
13050;BME280;6591;51.446;5.404;2023-02-28T06:58:49;102798.00;;;7.97;42.96
13050;BME280;6591;51.446;5.404;2023-02-28T07:01:17;102801.53;;;7.99;42.55
13050;BME280;6591;51.446;5.404;2023-02-28T07:03:45;102797.13;;;8.00;42.58
13050;BME280;6591;51.446;5.404;2023-02-28T07:06:13;102801.50;;;8.01;42.11
13050;BME280;6591;51.446;5.404;2023-02-28T07:08:40;102806.81;;;8.02;42.37
13050;BME280;6591;51.446;5.404;2023-02-28T07:11:07;102809.44;;;8.01;42.16
13050;BME280;6591;51.446;5.404;2023-02-28T07:13:36;102827.97;;;8.02;42.54
13050;BME280;6591;51.446;5.404;2023-02-28T07:16:06;102818.25;;;8.03;42.14
13050;BME280;6591;51.446;5.404;2023-02-28T07:18:35;102815.63;;;8.04;42.36
13050;BME280;6591;51.446;5.404;2023-02-28T07:21:08;102819.16;;;8.05;42.25
13050;BME280;6591;51.446;5.404;2023-02-28T07:23:36;102823.53;;;8.09;42.89
13050;BME280;6591;51.446;5.404;2023-02-28T07:26:13;102828.81;;;8.12;42.25
13050;BME280;6591;51.446;5.404;2023-02-28T07:28:46;102825.28;;;8.18;42.47
13050;BME280;6591;51.446;5.404;2023-02-28T07:31:23;102833.19;;;8.24;42.55
13050;BME280;6591;51.446;5.404;2023-02-28T07:33:50;102829.63;;;8.29;42.51
13050;BME280;6591;51.446;5.404;2023-02-28T07:36:17;102834.06;;;8.36;42.45
13050;BME280;6591;51.446;5.404;2023-02-28T07:38:48;102833.13;;;8.45;42.68
13050;BME280;6591;51.446;5.404;2023-02-28T07:41:20;102823.38;;;8.55;42.63
13050;BME280;6591;51.446;5.404;2023-02-28T07:43:48;102823.31;;;8.64;42.36
13050;BME280;6591;51.446;5.404;2023-02-28T07:46:16;102831.22;;;8.74;42.10
13050;BME280;6591;51.446;5.404;2023-02-28T07:48:44;102832.03;;;8.87;42.21
13050;BME280;6591;51.446;5.404;2023-02-28T07:51:12;102831.09;;;9.00;42.06
13050;BME280;6591;51.446;5.404;2023-02-28T07:53:40;102829.22;;;9.13;42.18
13050;BME280;6591;51.446;5.404;2023-02-28T07:56:07;102833.56;;;9.23;41.34
13050;BME280;6591;51.446;5.404;2023-02-28T07:58:35;102835.28;;;9.31;41.40
13050;BME280;6591;51.446;5.404;2023-02-28T08:01:10;102842.31;;;9.34;40.78
13050;BME280;6591;51.446;5.404;2023-02-28T08:03:39;102843.16;;;9.39;41.02
13050;BME280;6591;51.446;5.404;2023-02-28T08:06:15;102838.75;;;9.37;40.64
13050;BME280;6591;51.446;5.404;2023-02-28T08:08:43;102842.25;;;9.42;40.36
13050;BME280;6591;51.446;5.404;2023-02-28T08:11:11;102844.91;;;9.40;40.54
13050;BME280;6591;51.446;5.404;2023-02-28T08:13:38;102836.97;;;9.39;40.14
13050;BME280;6591;51.446;5.404;2023-02-28T08:16:05;102844.06;;;9.37;40.40
13050;BME280;6591;51.446;5.404;2023-02-28T08:18:33;102833.47;;;9.35;39.95
13050;BME280;6591;51.446;5.404;2023-02-28T08:21:09;102848.50;;;9.34;39.79
13050;BME280;6591;51.446;5.404;2023-02-28T08:23:37;102836.13;;;9.35;39.89
13050;BME280;6591;51.446;5.404;2023-02-28T08:26:04;102835.22;;;9.36;39.71
13050;BME280;6591;51.446;5.404;2023-02-28T08:28:32;102836.03;;;9.43;39.82
13050;BME280;6591;51.446;5.404;2023-02-28T08:30:59;102837.75;;;9.50;39.37
13050;BME280;6591;51.446;5.404;2023-02-28T08:33:27;102830.63;;;9.55;38.92
13050;BME280;6591;51.446;5.404;2023-02-28T08:35:56;102831.47;;;9.61;39.12
13050;BME280;6591;51.446;5.404;2023-02-28T08:38:24;102834.03;;;9.72;38.81
13050;BME280;6591;51.446;5.404;2023-02-28T08:40:59;102838.34;;;9.82;38.97
13050;BME280;6591;51.446;5.404;2023-02-28T08:43:28;102832.88;;;9.97;38.83
13050;BME280;6591;51.446;5.404;2023-02-28T08:45:56;102826.53;;;10.10;38.61
13050;BME280;6591;51.446;5.404;2023-02-28T08:48:31;102825.53;;;10.20;37.99
13050;BME280;6591;51.446;5.404;2023-02-28T08:51:04;102825.47;;;10.27;37.79
13050;BME280;6591;51.446;5.404;2023-02-28T08:53:38;102828.06;;;10.31;37.30
13050;BME280;6591;51.446;5.404;2023-02-28T08:56:11;102826.22;;;10.39;37.55
13050;BME280;6591;51.446;5.404;2023-02-28T08:58:39;102822.59;;;10.46;37.79
13050;BME280;6591;51.446;5.404;2023-02-28T09:01:17;102821.59;;;10.55;36.84
13050;BME280;6591;51.446;5.404;2023-02-28T09:03:47;102824.94;;;10.69;37.44
13050;BME280;6591;51.446;5.404;2023-02-28T09:06:18;102826.53;;;10.82;37.23
13050;BME280;6591;51.446;5.404;2023-02-28T09:08:46;102827.19;;;10.98;37.05
13050;BME280;6591;51.446;5.404;2023-02-28T09:11:14;102829.63;;;11.12;36.74
13050;BME280;6591;51.446;5.404;2023-02-28T09:13:41;102828.53;;;11.25;36.41
13050;BME280;6591;51.446;5.404;2023-02-28T09:16:12;102831.13;;;11.29;35.40
13050;BME280;6591;51.446;5.404;2023-02-28T09:18:40;102827.56;;;11.30;35.39
13050;BME280;6591;51.446;5.404;2023-02-28T09:21:11;102831.94;;;11.34;35.86
13050;BME280;6591;51.446;5.404;2023-02-28T09:23:42;102822.03;;;11.41;35.74
13050;BME280;6591;51.446;5.404;2023-02-28T09:26:25;102823.66;;;11.51;36.08
13050;BME280;6591;51.446;5.404;2023-02-28T09:29:04;102819.88;;;11.64;35.72
13050;BME280;6591;51.446;5.404;2023-02-28T09:31:32;102817.13;;;11.70;35.03
13050;BME280;6591;51.446;5.404;2023-02-28T09:33:59;102824.16;;;11.76;35.57
13050;BME280;6591;51.446;5.404;2023-02-28T09:36:26;102814.28;;;11.82;35.04
13050;BME280;6591;51.446;5.404;2023-02-28T09:39:10;102826.50;;;11.93;35.05
13050;BME280;6591;51.446;5.404;2023-02-28T09:41:48;102814.91;;;11.95;34.73
13050;BME280;6591;51.446;5.404;2023-02-28T09:44:31;102812.97;;;12.03;34.86
13050;BME280;6591;51.446;5.404;2023-02-28T09:47:33;102811.06;;;12.10;34.61
13050;BME280;6591;51.446;5.404;2023-02-28T09:52:54;102812.56;;;12.24;34.20
13050;BME280;6591;51.446;5.404;2023-02-28T09:55:39;102818.59;;;12.31;33.60
13050;BME280;6591;51.446;5.404;2023-02-28T09:58:28;102809.59;;;12.38;33.50
13050;BME280;6591;51.446;5.404;2023-02-28T10:04:19;102806.69;;;12.49;33.08
13050;BME280;6591;51.446;5.404;2023-02-28T10:06:53;102810.06;;;12.57;33.45
13050;BME280;6591;51.446;5.404;2023-02-28T10:09:41;102801.97;;;12.61;32.80
13050;BME280;6591;51.446;5.404;2023-02-28T10:12:11;102807.13;;;12.69;32.88
13050;BME280;6591;51.446;5.404;2023-02-28T10:14:44;102804.34;;;12.75;33.09
13050;BME280;6591;51.446;5.404;2023-02-28T10:17:22;102810.34;;;12.85;32.95
13050;BME280;6591;51.446;5.404;2023-02-28T10:20:05;102800.31;;;12.94;32.49
13050;BME280;6591;51.446;5.404;2023-02-28T10:25:28;102791.69;;;13.22;32.32
13050;BME280;6591;51.446;5.404;2023-02-28T10:28:14;102793.34;;;13.27;32.27
13050;BME280;6591;51.446;5.404;2023-02-28T10:30:49;102797.53;;;13.37;32.26
13050;BME280;6591;51.446;5.404;2023-02-28T10:33:30;102787.59;;;13.42;31.59
13050;BME280;6591;51.446;5.404;2023-02-28T10:35:58;102784.03;;;13.43;31.48
13050;BME280;6591;51.446;5.404;2023-02-28T10:38:34;102793.78;;;13.44;31.17
13050;BME280;6591;51.446;5.404;2023-02-28T10:41:15;102782.19;;;13.45;31.82
13050;BME280;6591;51.446;5.404;2023-02-28T10:43:43;102781.09;;;13.54;31.52
13050;BME280;6591;51.446;5.404;2023-02-28T10:46:19;102781.91;;;13.56;30.88
13050;BME280;6591;51.446;5.404;2023-02-28T10:49:05;102783.53;;;13.62;30.81
13050;BME280;6591;51.446;5.404;2023-02-28T10:51:41;102782.72;;;13.60;30.29
13050;BME280;6591;51.446;5.404;2023-02-28T10:54:30;102786.53;;;13.49;29.97
13050;BME280;6591;51.446;5.404;2023-02-28T10:57:23;102778.66;;;13.45;30.58
13050;BME280;6591;51.446;5.404;2023-02-28T11:00:19;102778.44;;;13.52;31.11
13050;BME280;6591;51.446;5.404;2023-02-28T11:02:49;102777.97;;;13.71;31.39
13050;BME280;6591;51.446;5.404;2023-02-28T11:05:35;102775.81;;;13.83;30.93
13050;BME280;6591;51.446;5.404;2023-02-28T11:08:16;102763.78;;;13.99;30.67
13050;BME280;6591;51.446;5.404;2023-02-28T11:11:04;102764.31;;;14.12;30.61
13050;BME280;6591;51.446;5.404;2023-02-28T11:13:36;102768.41;;;14.24;30.69
13050;BME280;6591;51.446;5.404;2023-02-28T11:16:08;102767.28;;;14.32;30.53
13050;BME280;6591;51.446;5.404;2023-02-28T11:18:57;102764.50;;;14.37;30.14
13050;BME280;6591;51.446;5.404;2023-02-28T11:21:32;102772.38;;;14.41;29.97
13050;BME280;6591;51.446;5.404;2023-02-28T11:24:24;102767.19;;;14.35;29.36
13050;BME280;6591;51.446;5.404;2023-02-28T11:26:53;102772.47;;;14.38;29.92
13050;BME280;6591;51.446;5.404;2023-02-28T11:29:30;102760.91;;;14.38;29.69
13050;BME280;6591;51.446;5.404;2023-02-28T11:32:20;102760.03;;;14.37;29.88
13050;BME280;6591;51.446;5.404;2023-02-28T11:37:50;102752.06;;;14.34;29.29
13050;BME280;6591;51.446;5.404;2023-02-28T11:40:52;102751.44;;;14.26;29.37
13050;BME280;6591;51.446;5.404;2023-02-28T11:46:37;102744.72;;;14.43;29.87
13050;BME280;6591;51.446;5.404;2023-02-28T11:49:27;102746.94;;;14.58;29.93
13050;BME280;6591;51.446;5.404;2023-02-28T12:01:04;102749.66;;;14.84;29.74
13050;BME280;6591;51.446;5.404;2023-02-28T12:03:49;102737.00;;;14.89;29.57
13050;BME280;6591;51.446;5.404;2023-02-28T12:15:38;102725.22;;;14.95;29.23
13050;BME280;6591;51.446;5.404;2023-02-28T12:21:05;102728.75;;;14.97;29.11
13050;BME280;6591;51.446;5.404;2023-02-28T12:26:44;102724.47;;;14.91;28.57
13050;BME280;6591;51.446;5.404;2023-02-28T12:29:19;102729.81;;;14.91;28.79
13050;BME280;6591;51.446;5.404;2023-02-28T12:31:59;102732.41;;;14.93;28.83
13050;BME280;6591;51.446;5.404;2023-02-28T12:34:36;102725.19;;;14.96;28.84
13050;BME280;6591;51.446;5.404;2023-02-28T12:37:31;102716.28;;;14.96;29.03
13050;BME280;6591;51.446;5.404;2023-02-28T12:40:09;102717.75;;;15.04;29.02
13050;BME280;6591;51.446;5.404;2023-02-28T12:42:57;102708.69;;;15.08;28.82
13050;BME280;6591;51.446;5.404;2023-02-28T12:45:55;102701.47;;;15.12;28.66
13050;BME280;6591;51.446;5.404;2023-02-28T12:48:48;102699.59;;;15.14;28.69
13050;BME280;6591;51.446;5.404;2023-02-28T12:51:20;102694.78;;;15.23;28.34
13050;BME280;6591;51.446;5.404;2023-02-28T12:54:14;102694.91;;;15.20;28.64
13050;BME280;6591;51.446;5.404;2023-02-28T12:57:01;102686.72;;;15.25;28.75
13050;BME280;6591;51.446;5.404;2023-02-28T12:59:45;102686.50;;;15.31;28.45
13050;BME280;6591;51.446;5.404;2023-02-28T13:10:54;102671.78;;;15.18;28.28
13050;BME280;6591;51.446;5.404;2023-02-28T13:13:27;102669.13;;;15.18;28.44
13050;BME280;6591;51.446;5.404;2023-02-28T13:16:08;102675.34;;;15.18;28.23
13050;BME280;6591;51.446;5.404;2023-02-28T13:18:40;102667.31;;;15.18;27.59
13050;BME280;6591;51.446;5.404;2023-02-28T13:21:28;102664.06;;;15.10;27.76
13050;BME280;6591;51.446;5.404;2023-02-28T13:24:01;102650.75;;;15.07;27.92
13050;BME280;6591;51.446;5.404;2023-02-28T13:34:37;102665.25;;;14.75;27.51
13050;BME280;6591;51.446;5.404;2023-02-28T13:42:35;102662.00;;;14.66;27.50
13050;BME280;6591;51.446;5.404;2023-02-28T13:48:02;102643.72;;;14.80;28.23
13050;BME280;6591;51.446;5.404;2023-02-28T13:50:36;102645.94;;;14.92;28.32
13050;BME280;6591;51.446;5.404;2023-02-28T13:56:07;102650.50;;;15.15;28.29
13050;BME280;6591;51.446;5.404;2023-02-28T13:58:55;102640.34;;;15.24;28.03
13050;BME280;6591;51.446;5.404;2023-02-28T14:01:51;102634.72;;;15.32;28.10
13050;BME280;6591;51.446;5.404;2023-02-28T14:05:06;102642.59;;;15.37;28.11
13050;BME280;6591;51.446;5.404;2023-02-28T14:07:46;102638.91;;;15.39;28.03
13050;BME280;6591;51.446;5.404;2023-02-28T14:10:39;102639.75;;;15.41;27.78
13050;BME280;6591;51.446;5.404;2023-02-28T14:16:06;102633.47;;;15.42;27.96
13050;BME280;6591;51.446;5.404;2023-02-28T14:18:38;102639.78;;;15.40;27.57
13050;BME280;6591;51.446;5.404;2023-02-28T14:21:32;102632.97;;;15.31;27.39
13050;BME280;6591;51.446;5.404;2023-02-28T14:24:30;102634.19;;;15.22;27.44
13050;BME280;6591;51.446;5.404;2023-02-28T14:30:29;102635.88;;;15.00;27.46
13050;BME280;6591;51.446;5.404;2023-02-28T14:33:35;102629.19;;;14.87;26.90
13050;BME280;6591;51.446;5.404;2023-02-28T14:36:40;102629.69;;;14.72;27.20
13050;BME280;6591;51.446;5.404;2023-02-28T14:39:14;102620.91;;;14.68;27.08
13050;BME280;6591;51.446;5.404;2023-02-28T14:41:44;102628.97;;;14.67;27.68
13050;BME280;6591;51.446;5.404;2023-02-28T14:44:20;102623.63;;;14.67;28.09
13050;BME280;6591;51.446;5.404;2023-02-28T14:46:55;102629.81;;;14.69;27.65
13050;BME280;6591;51.446;5.404;2023-02-28T14:49:35;102627.16;;;14.69;27.09
13050;BME280;6591;51.446;5.404;2023-02-28T14:52:14;102613.66;;;14.72;27.58
13050;BME280;6591;51.446;5.404;2023-02-28T14:54:44;102610.69;;;14.81;27.96
13050;BME280;6591;51.446;5.404;2023-02-28T14:57:27;102612.22;;;14.88;27.94
13050;BME280;6591;51.446;5.404;2023-02-28T15:00:23;102620.06;;;14.93;27.50
13050;BME280;6591;51.446;5.404;2023-02-28T15:02:54;102606.66;;;14.94;27.33
13050;BME280;6591;51.446;5.404;2023-02-28T15:05:32;102609.44;;;14.91;27.35
13050;BME280;6591;51.446;5.404;2023-02-28T15:08:14;102608.63;;;14.89;27.51
13050;BME280;6591;51.446;5.404;2023-02-28T15:10:58;102614.88;;;14.88;27.38
13050;BME280;6591;51.446;5.404;2023-02-28T15:13:39;102619.19;;;14.92;27.60
13050;BME280;6591;51.446;5.404;2023-02-28T15:21:40;102610.88;;;15.01;27.73
13050;BME280;6591;51.446;5.404;2023-02-28T15:24:46;102608.13;;;15.03;27.55
13050;BME280;6591;51.446;5.404;2023-02-28T15:27:40;102616.97;;;15.05;27.45
13050;BME280;6591;51.446;5.404;2023-02-28T15:30:19;102623.91;;;15.10;27.55